CFS weather

Coffs Harbour Airport
Coffs Harbour, New South Wales, Australia

Public forecast

Using degrees Celsius for public forecast. Weather courtesy of forecast.io.

METAR (pilot weather report)

Closest report is Grafton Airport, 34.0 nm (62.9 km) N. Retrieved 2018/02/23 10:00 UTC (15 minutes ago):

YGFN 231000Z AUTO 22004KT 9999 // SCT026 BKN082 22/21 Q1015

TAF (pilot weather forecast)

Forecast is more than 6 hours old.

Closest forecast is Taree Airport, 99.1 nm (183.5 km) SSW. Retrieved 2018/02/23 02:03 UTC (8 hours ago):

TAF TAF YTRE 230050Z 2302/2314 04015G25KT 9999 SCT030 FM230600 05012KT 9999 BKN025